sensor_id;sensor_type;location;lat;lon;timestamp;temperature;humidity
27858;DHT22;16852;51.446;6.528;2024-03-02T00:01:55;9.10;99.90
27858;DHT22;16852;51.446;6.528;2024-03-02T00:03:55;9.20;99.90
27858;DHT22;16852;51.446;6.528;2024-03-02T00:05:56;9.20;99.90
27858;DHT22;16852;51.446;6.528;2024-03-02T00:07:58;9.10;99.90
27858;DHT22;16852;51.446;6.528;2024-03-02T00:09:58;9.10;99.90
27858;DHT22;16852;51.446;6.528;2024-03-02T00:12:00;9.20;99.90
27858;DHT22;16852;51.446;6.528;2024-03-02T00:14:01;9.10;99.90
27858;DHT22;16852;51.446;6.528;2024-03-02T00:16:01;9.10;99.90
27858;DHT22;16852;51.446;6.528;2024-03-02T00:18:05;9.10;99.90
27858;DHT22;16852;51.446;6.528;2024-03-02T00:20:09;9.10;99.90
27858;DHT22;16852;51.446;6.528;2024-03-02T00:22:10;9.10;99.90
27858;DHT22;16852;51.446;6.528;2024-03-02T00:24:43;9.10;99.90
27858;DHT22;16852;51.446;6.528;2024-03-02T00:26:45;9.20;99.90
27858;DHT22;16852;51.446;6.528;2024-03-02T00:28:46;9.20;99.90
27858;DHT22;16852;51.446;6.528;2024-03-02T00:31:06;9.20;99.90
27858;DHT22;16852;51.446;6.528;2024-03-02T00:33:08;9.20;99.90
27858;DHT22;16852;51.446;6.528;2024-03-02T00:35:09;9.20;99.90
27858;DHT22;16852;51.446;6.528;2024-03-02T00:37:11;9.30;99.90
27858;DHT22;16852;51.446;6.528;2024-03-02T00:39:12;9.20;99.90
27858;DHT22;16852;51.446;6.528;2024-03-02T00:43:48;9.30;99.90
27858;DHT22;16852;51.446;6.528;2024-03-02T00:45:50;9.30;99.90
27858;DHT22;16852;51.446;6.528;2024-03-02T00:47:51;9.40;99.90
27858;DHT22;16852;51.446;6.528;2024-03-02T00:49:52;9.40;99.90
27858;DHT22;16852;51.446;6.528;2024-03-02T00:51:54;9.40;99.90
27858;DHT22;16852;51.446;6.528;2024-03-02T00:53:58;9.50;99.90
27858;DHT22;16852;51.446;6.528;2024-03-02T00:55:59;9.50;99.90
27858;DHT22;16852;51.446;6.528;2024-03-02T00:58:01;9.50;99.90
27858;DHT22;16852;51.446;6.528;2024-03-02T01:00:02;9.50;99.90
27858;DHT22;16852;51.446;6.528;2024-03-02T01:02:07;9.50;99.90
27858;DHT22;16852;51.446;6.528;2024-03-02T01:04:08;9.60;99.90
27858;DHT22;16852;51.446;6.528;2024-03-02T01:06:09;9.60;99.90
27858;DHT22;16852;51.446;6.528;2024-03-02T01:08:10;9.60;99.90
27858;DHT22;16852;51.446;6.528;2024-03-02T01:10:11;9.60;99.90
27858;DHT22;16852;51.446;6.528;2024-03-02T01:12:11;9.60;99.90
27858;DHT22;16852;51.446;6.528;2024-03-02T01:14:12;9.70;99.90
27858;DHT22;16852;51.446;6.528;2024-03-02T01:16:13;9.70;99.90
27858;DHT22;16852;51.446;6.528;2024-03-02T01:18:14;9.70;99.90
27858;DHT22;16852;51.446;6.528;2024-03-02T01:20:15;9.70;99.90
27858;DHT22;16852;51.446;6.528;2024-03-02T01:22:15;9.80;99.90
27858;DHT22;16852;51.446;6.528;2024-03-02T01:24:16;9.70;99.90
27858;DHT22;16852;51.446;6.528;2024-03-02T01:26:17;9.80;99.90
27858;DHT22;16852;51.446;6.528;2024-03-02T01:28:18;9.80;99.90
27858;DHT22;16852;51.446;6.528;2024-03-02T01:30:19;9.80;99.90
27858;DHT22;16852;51.446;6.528;2024-03-02T01:32:20;9.80;99.90
27858;DHT22;16852;51.446;6.528;2024-03-02T01:34:20;9.80;99.90
27858;DHT22;16852;51.446;6.528;2024-03-02T01:36:21;9.80;99.90
27858;DHT22;16852;51.446;6.528;2024-03-02T01:38:22;9.80;99.90
27858;DHT22;16852;51.446;6.528;2024-03-02T01:40:23;9.80;99.90
27858;DHT22;16852;51.446;6.528;2024-03-02T01:42:26;9.80;99.90
27858;DHT22;16852;51.446;6.528;2024-03-02T01:44:27;9.80;99.90
27858;DHT22;16852;51.446;6.528;2024-03-02T01:46:28;9.90;99.90
27858;DHT22;16852;51.446;6.528;2024-03-02T01:48:28;9.90;99.90
27858;DHT22;16852;51.446;6.528;2024-03-02T01:50:32;9.90;99.90
27858;DHT22;16852;51.446;6.528;2024-03-02T01:52:33;9.90;99.90
27858;DHT22;16852;51.446;6.528;2024-03-02T01:54:34;9.90;99.90
27858;DHT22;16852;51.446;6.528;2024-03-02T01:56:34;9.90;99.90
27858;DHT22;16852;51.446;6.528;2024-03-02T01:58:35;9.90;99.90
27858;DHT22;16852;51.446;6.528;2024-03-02T02:00:36;9.90;99.90
27858;DHT22;16852;51.446;6.528;2024-03-02T02:02:37;9.90;99.90
27858;DHT22;16852;51.446;6.528;2024-03-02T02:04:41;10.00;99.90
27858;DHT22;16852;51.446;6.528;2024-03-02T02:06:42;10.00;99.90
27858;DHT22;16852;51.446;6.528;2024-03-02T02:08:44;10.00;99.90
27858;DHT22;16852;51.446;6.528;2024-03-02T02:10:45;9.90;99.90
27858;DHT22;16852;51.446;6.528;2024-03-02T02:12:46;10.00;99.90
27858;DHT22;16852;51.446;6.528;2024-03-02T02:14:47;10.00;99.90
27858;DHT22;16852;51.446;6.528;2024-03-02T02:16:49;9.90;99.90
27858;DHT22;16852;51.446;6.528;2024-03-02T02:18:50;10.00;99.90
27858;DHT22;16852;51.446;6.528;2024-03-02T02:20:50;9.90;99.90
27858;DHT22;16852;51.446;6.528;2024-03-02T02:25:01;9.90;99.90
27858;DHT22;16852;51.446;6.528;2024-03-02T02:27:02;10.00;99.90
27858;DHT22;16852;51.446;6.528;2024-03-02T02:29:03;9.90;99.90
27858;DHT22;16852;51.446;6.528;2024-03-02T02:31:03;10.00;99.90
27858;DHT22;16852;51.446;6.528;2024-03-02T02:33:04;10.00;99.90
27858;DHT22;16852;51.446;6.528;2024-03-02T02:35:05;10.00;99.90
27858;DHT22;16852;51.446;6.528;2024-03-02T02:37:06;10.00;99.90
27858;DHT22;16852;51.446;6.528;2024-03-02T02:39:09;10.00;99.90
27858;DHT22;16852;51.446;6.528;2024-03-02T02:41:11;10.00;99.90
27858;DHT22;16852;51.446;6.528;2024-03-02T02:43:11;10.00;99.90
27858;DHT22;16852;51.446;6.528;2024-03-02T02:45:12;10.00;99.90
27858;DHT22;16852;51.446;6.528;2024-03-02T02:47:14;10.00;99.90
27858;DHT22;16852;51.446;6.528;2024-03-02T02:49:15;10.00;99.90
27858;DHT22;16852;51.446;6.528;2024-03-02T02:51:16;10.00;99.90
27858;DHT22;16852;51.446;6.528;2024-03-02T02:53:17;10.00;99.90
27858;DHT22;16852;51.446;6.528;2024-03-02T02:55:18;10.00;99.90
27858;DHT22;16852;51.446;6.528;2024-03-02T02:57:19;10.00;99.90
27858;DHT22;16852;51.446;6.528;2024-03-02T02:59:19;10.00;99.90
27858;DHT22;16852;51.446;6.528;2024-03-02T03:01:20;10.00;99.90
27858;DHT22;16852;51.446;6.528;2024-03-02T03:03:20;10.00;99.90
27858;DHT22;16852;51.446;6.528;2024-03-02T03:05:21;10.00;99.90
27858;DHT22;16852;51.446;6.528;2024-03-02T03:07:21;10.00;99.90
27858;DHT22;16852;51.446;6.528;2024-03-02T03:09:22;10.10;99.90
27858;DHT22;16852;51.446;6.528;2024-03-02T03:11:23;10.10;99.90
27858;DHT22;16852;51.446;6.528;2024-03-02T03:13:25;10.10;99.90
27858;DHT22;16852;51.446;6.528;2024-03-02T03:15:26;10.00;99.90
27858;DHT22;16852;51.446;6.528;2024-03-02T03:17:26;10.10;99.90
27858;DHT22;16852;51.446;6.528;2024-03-02T03:19:30;10.00;99.90
27858;DHT22;16852;51.446;6.528;2024-03-02T03:21:31;10.00;99.90
27858;DHT22;16852;51.446;6.528;2024-03-02T03:23:31;9.90;99.90
27858;DHT22;16852;51.446;6.528;2024-03-02T03:25:32;9.90;99.90
27858;DHT22;16852;51.446;6.528;2024-03-02T03:27:33;9.90;99.90
27858;DHT22;16852;51.446;6.528;2024-03-02T03:29:33;9.90;99.90
27858;DHT22;16852;51.446;6.528;2024-03-02T03:31:36;9.90;99.90
27858;DHT22;16852;51.446;6.528;2024-03-02T03:33:36;9.80;99.90
27858;DHT22;16852;51.446;6.528;2024-03-02T03:35:37;9.90;99.90
27858;DHT22;16852;51.446;6.528;2024-03-02T03:37:38;9.80;99.90
27858;DHT22;16852;51.446;6.528;2024-03-02T03:39:38;9.80;99.90
27858;DHT22;16852;51.446;6.528;2024-03-02T03:41:40;9.80;99.90
27858;DHT22;16852;51.446;6.528;2024-03-02T03:43:41;9.80;99.90
27858;DHT22;16852;51.446;6.528;2024-03-02T03:45:41;9.70;99.90
27858;DHT22;16852;51.446;6.528;2024-03-02T03:47:42;9.70;99.90
27858;DHT22;16852;51.446;6.528;2024-03-02T03:49:43;9.70;99.90
27858;DHT22;16852;51.446;6.528;2024-03-02T03:51:44;9.70;99.90
27858;DHT22;16852;51.446;6.528;2024-03-02T03:53:45;9.70;99.90
27858;DHT22;16852;51.446;6.528;2024-03-02T03:55:45;9.70;99.90
27858;DHT22;16852;51.446;6.528;2024-03-02T03:57:47;9.70;99.90
27858;DHT22;16852;51.446;6.528;2024-03-02T03:59:47;9.70;99.90
27858;DHT22;16852;51.446;6.528;2024-03-02T04:01:48;9.60;99.90
27858;DHT22;16852;51.446;6.528;2024-03-02T04:03:49;9.60;99.90
27858;DHT22;16852;51.446;6.528;2024-03-02T04:05:49;9.60;99.90
27858;DHT22;16852;51.446;6.528;2024-03-02T04:07:50;9.60;99.90
27858;DHT22;16852;51.446;6.528;2024-03-02T04:09:51;9.60;99.90
27858;DHT22;16852;51.446;6.528;2024-03-02T04:11:51;9.60;99.90
27858;DHT22;16852;51.446;6.528;2024-03-02T04:13:52;9.60;99.90
27858;DHT22;16852;51.446;6.528;2024-03-02T04:15:52;9.60;99.90
27858;DHT22;16852;51.446;6.528;2024-03-02T04:17:54;9.60;99.90
27858;DHT22;16852;51.446;6.528;2024-03-02T04:19:56;9.60;99.90
27858;DHT22;16852;51.446;6.528;2024-03-02T04:21:56;9.50;99.90
27858;DHT22;16852;51.446;6.528;2024-03-02T04:23:57;9.50;99.90
27858;DHT22;16852;51.446;6.528;2024-03-02T04:25:59;9.50;99.90
27858;DHT22;16852;51.446;6.528;2024-03-02T04:28:00;9.50;99.90
27858;DHT22;16852;51.446;6.528;2024-03-02T04:30:01;9.50;99.90
27858;DHT22;16852;51.446;6.528;2024-03-02T04:32:01;9.50;99.90
27858;DHT22;16852;51.446;6.528;2024-03-02T04:34:02;9.50;99.90
27858;DHT22;16852;51.446;6.528;2024-03-02T04:36:03;9.50;99.90
27858;DHT22;16852;51.446;6.528;2024-03-02T04:38:03;9.60;99.90
27858;DHT22;16852;51.446;6.528;2024-03-02T04:40:05;9.60;99.90
27858;DHT22;16852;51.446;6.528;2024-03-02T04:42:08;9.60;99.90
27858;DHT22;16852;51.446;6.528;2024-03-02T04:44:09;9.60;99.90
27858;DHT22;16852;51.446;6.528;2024-03-02T04:46:09;9.60;99.90
27858;DHT22;16852;51.446;6.528;2024-03-02T04:48:13;9.50;99.90
27858;DHT22;16852;51.446;6.528;2024-03-02T04:50:14;9.60;99.90
27858;DHT22;16852;51.446;6.528;2024-03-02T04:52:15;9.60;99.90
27858;DHT22;16852;51.446;6.528;2024-03-02T04:54:16;9.50;99.90
27858;DHT22;16852;51.446;6.528;2024-03-02T04:56:16;9.50;99.90
27858;DHT22;16852;51.446;6.528;2024-03-02T04:58:39;9.50;99.90
27858;DHT22;16852;51.446;6.528;2024-03-02T05:00:40;9.50;99.90
27858;DHT22;16852;51.446;6.528;2024-03-02T05:02:40;9.50;99.90
27858;DHT22;16852;51.446;6.528;2024-03-02T05:04:41;9.50;99.90
27858;DHT22;16852;51.446;6.528;2024-03-02T05:06:42;9.50;99.90
27858;DHT22;16852;51.446;6.528;2024-03-02T05:08:43;9.50;99.90
27858;DHT22;16852;51.446;6.528;2024-03-02T05:10:45;9.50;99.90
27858;DHT22;16852;51.446;6.528;2024-03-02T05:12:46;9.50;99.90
27858;DHT22;16852;51.446;6.528;2024-03-02T05:14:46;9.50;99.90
27858;DHT22;16852;51.446;6.528;2024-03-02T05:16:47;9.50;99.90
27858;DHT22;16852;51.446;6.528;2024-03-02T05:18:48;9.50;99.90
27858;DHT22;16852;51.446;6.528;2024-03-02T05:20:48;9.40;99.90
27858;DHT22;16852;51.446;6.528;2024-03-02T05:22:49;9.40;99.90
27858;DHT22;16852;51.446;6.528;2024-03-02T05:24:50;9.40;99.90
27858;DHT22;16852;51.446;6.528;2024-03-02T05:26:50;9.40;99.90
27858;DHT22;16852;51.446;6.528;2024-03-02T05:28:51;9.40;99.90
27858;DHT22;16852;51.446;6.528;2024-03-02T05:30:52;9.40;99.90
27858;DHT22;16852;51.446;6.528;2024-03-02T05:32:52;9.30;99.90
27858;DHT22;16852;51.446;6.528;2024-03-02T05:34:53;9.20;99.90
27858;DHT22;16852;51.446;6.528;2024-03-02T05:36:54;9.20;99.90
27858;DHT22;16852;51.446;6.528;2024-03-02T05:38:55;9.20;99.90
27858;DHT22;16852;51.446;6.528;2024-03-02T05:40:55;9.20;99.90
27858;DHT22;16852;51.446;6.528;2024-03-02T05:42:56;9.20;99.90
27858;DHT22;16852;51.446;6.528;2024-03-02T05:44:57;9.10;99.90
27858;DHT22;16852;51.446;6.528;2024-03-02T05:46:57;9.10;99.90
27858;DHT22;16852;51.446;6.528;2024-03-02T05:48:59;9.10;99.90
27858;DHT22;16852;51.446;6.528;2024-03-02T05:51:00;9.10;99.90
27858;DHT22;16852;51.446;6.528;2024-03-02T05:53:01;9.10;99.90
27858;DHT22;16852;51.446;6.528;2024-03-02T05:55:01;9.00;99.90
27858;DHT22;16852;51.446;6.528;2024-03-02T05:57:02;9.00;99.90
27858;DHT22;16852;51.446;6.528;2024-03-02T05:59:17;9.00;99.90
27858;DHT22;16852;51.446;6.528;2024-03-02T06:01:18;9.10;99.90
27858;DHT22;16852;51.446;6.528;2024-03-02T06:03:18;9.00;99.90
27858;DHT22;16852;51.446;6.528;2024-03-02T06:05:19;9.00;99.90
27858;DHT22;16852;51.446;6.528;2024-03-02T06:07:20;9.00;99.90
27858;DHT22;16852;51.446;6.528;2024-03-02T06:09:21;9.00;99.90
27858;DHT22;16852;51.446;6.528;2024-03-02T06:11:23;9.00;99.90
27858;DHT22;16852;51.446;6.528;2024-03-02T06:13:24;8.90;99.90
27858;DHT22;16852;51.446;6.528;2024-03-02T06:15:26;8.90;99.90
27858;DHT22;16852;51.446;6.528;2024-03-02T06:17:27;8.90;99.90
27858;DHT22;16852;51.446;6.528;2024-03-02T06:19:28;8.90;99.90
27858;DHT22;16852;51.446;6.528;2024-03-02T06:21:29;8.90;99.90
27858;DHT22;16852;51.446;6.528;2024-03-02T06:23:30;8.80;99.90
27858;DHT22;16852;51.446;6.528;2024-03-02T06:25:31;8.80;99.90
27858;DHT22;16852;51.446;6.528;2024-03-02T06:27:31;8.80;99.90
27858;DHT22;16852;51.446;6.528;2024-03-02T06:29:35;8.70;99.90
27858;DHT22;16852;51.446;6.528;2024-03-02T06:31:36;8.70;99.90
27858;DHT22;16852;51.446;6.528;2024-03-02T06:33:37;8.70;99.90
27858;DHT22;16852;51.446;6.528;2024-03-02T06:35:37;8.80;99.90
27858;DHT22;16852;51.446;6.528;2024-03-02T06:37:38;8.70;99.90
27858;DHT22;16852;51.446;6.528;2024-03-02T06:39:43;8.70;99.90
27858;DHT22;16852;51.446;6.528;2024-03-02T06:41:43;8.80;99.90
27858;DHT22;16852;51.446;6.528;2024-03-02T06:43:44;8.80;99.90
27858;DHT22;16852;51.446;6.528;2024-03-02T06:45:44;8.80;99.90
27858;DHT22;16852;51.446;6.528;2024-03-02T06:47:45;8.80;99.90
27858;DHT22;16852;51.446;6.528;2024-03-02T06:49:46;8.80;99.90
27858;DHT22;16852;51.446;6.528;2024-03-02T06:51:47;8.80;99.90
27858;DHT22;16852;51.446;6.528;2024-03-02T06:53:47;8.90;99.90
27858;DHT22;16852;51.446;6.528;2024-03-02T06:55:48;8.90;99.90
27858;DHT22;16852;51.446;6.528;2024-03-02T06:57:48;8.90;99.90
27858;DHT22;16852;51.446;6.528;2024-03-02T06:59:49;9.00;99.90
27858;DHT22;16852;51.446;6.528;2024-03-02T07:01:51;9.10;99.90
27858;DHT22;16852;51.446;6.528;2024-03-02T07:03:52;9.10;99.90
27858;DHT22;16852;51.446;6.528;2024-03-02T07:05:53;9.10;99.90
27858;DHT22;16852;51.446;6.528;2024-03-02T07:07:53;9.10;99.90
27858;DHT22;16852;51.446;6.528;2024-03-02T07:09:54;9.10;99.90
27858;DHT22;16852;51.446;6.528;2024-03-02T07:11:54;9.20;99.90
27858;DHT22;16852;51.446;6.528;2024-03-02T07:13:55;9.30;99.90
27858;DHT22;16852;51.446;6.528;2024-03-02T07:15:55;9.30;99.90
27858;DHT22;16852;51.446;6.528;2024-03-02T07:18:11;9.30;99.90
27858;DHT22;16852;51.446;6.528;2024-03-02T07:20:12;9.20;99.90
27858;DHT22;16852;51.446;6.528;2024-03-02T07:22:13;9.20;99.90
27858;DHT22;16852;51.446;6.528;2024-03-02T07:24:14;9.40;99.90
27858;DHT22;16852;51.446;6.528;2024-03-02T07:26:16;9.40;99.90
27858;DHT22;16852;51.446;6.528;2024-03-02T07:28:19;9.60;99.90
27858;DHT22;16852;51.446;6.528;2024-03-02T07:30:19;9.60;99.90
27858;DHT22;16852;51.446;6.528;2024-03-02T07:32:20;9.60;99.90
27858;DHT22;16852;51.446;6.528;2024-03-02T07:34:22;9.50;99.90
27858;DHT22;16852;51.446;6.528;2024-03-02T07:36:22;9.50;99.90
27858;DHT22;16852;51.446;6.528;2024-03-02T07:38:23;9.60;99.90
27858;DHT22;16852;51.446;6.528;2024-03-02T07:40:25;9.70;99.90
27858;DHT22;16852;51.446;6.528;2024-03-02T07:42:25;9.60;99.90
27858;DHT22;16852;51.446;6.528;2024-03-02T07:44:26;9.70;99.90
27858;DHT22;16852;51.446;6.528;2024-03-02T07:46:27;9.80;99.90
27858;DHT22;16852;51.446;6.528;2024-03-02T07:48:27;9.80;99.90
27858;DHT22;16852;51.446;6.528;2024-03-02T07:50:28;9.90;99.90
27858;DHT22;16852;51.446;6.528;2024-03-02T07:52:29;10.00;99.90
27858;DHT22;16852;51.446;6.528;2024-03-02T07:54:29;10.00;99.90
27858;DHT22;16852;51.446;6.528;2024-03-02T07:56:30;10.00;99.90
27858;DHT22;16852;51.446;6.528;2024-03-02T07:58:31;10.30;99.90
27858;DHT22;16852;51.446;6.528;2024-03-02T08:00:31;10.90;99.90
27858;DHT22;16852;51.446;6.528;2024-03-02T08:02:32;11.30;99.90
27858;DHT22;16852;51.446;6.528;2024-03-02T08:04:33;11.70;99.90
27858;DHT22;16852;51.446;6.528;2024-03-02T08:06:33;11.90;99.90
27858;DHT22;16852;51.446;6.528;2024-03-02T08:08:34;12.10;99.90
27858;DHT22;16852;51.446;6.528;2024-03-02T08:10:35;12.20;99.90
27858;DHT22;16852;51.446;6.528;2024-03-02T08:12:36;12.40;99.90
27858;DHT22;16852;51.446;6.528;2024-03-02T08:14:36;12.70;99.90
27858;DHT22;16852;51.446;6.528;2024-03-02T08:16:37;12.90;99.90
27858;DHT22;16852;51.446;6.528;2024-03-02T08:18:38;12.70;99.90
27858;DHT22;16852;51.446;6.528;2024-03-02T08:20:38;12.80;99.90
27858;DHT22;16852;51.446;6.528;2024-03-02T08:22:40;12.90;99.90
27858;DHT22;16852;51.446;6.528;2024-03-02T08:24:41;13.20;99.90
27858;DHT22;16852;51.446;6.528;2024-03-02T08:26:42;13.10;99.90
27858;DHT22;16852;51.446;6.528;2024-03-02T08:28:43;13.00;99.90
27858;DHT22;16852;51.446;6.528;2024-03-02T08:30:43;13.00;99.90
27858;DHT22;16852;51.446;6.528;2024-03-02T08:32:44;13.10;99.90
27858;DHT22;16852;51.446;6.528;2024-03-02T08:34:45;13.30;99.90
27858;DHT22;16852;51.446;6.528;2024-03-02T08:36:47;13.40;99.90
27858;DHT22;16852;51.446;6.528;2024-03-02T08:38:50;13.50;99.90
27858;DHT22;16852;51.446;6.528;2024-03-02T08:40:50;13.60;99.90
27858;DHT22;16852;51.446;6.528;2024-03-02T08:42:52;13.70;99.90
27858;DHT22;16852;51.446;6.528;2024-03-02T08:44:53;13.80;99.90
27858;DHT22;16852;51.446;6.528;2024-03-02T08:46:53;14.00;99.90
27858;DHT22;16852;51.446;6.528;2024-03-02T08:48:54;14.10;99.90
27858;DHT22;16852;51.446;6.528;2024-03-02T08:50:55;14.20;99.90
27858;DHT22;16852;51.446;6.528;2024-03-02T08:52:55;14.30;99.90
27858;DHT22;16852;51.446;6.528;2024-03-02T08:54:56;14.40;99.90
27858;DHT22;16852;51.446;6.528;2024-03-02T08:56:56;14.40;99.90
27858;DHT22;16852;51.446;6.528;2024-03-02T08:58:57;14.50;99.90
27858;DHT22;16852;51.446;6.528;2024-03-02T09:00:58;14.50;99.90
27858;DHT22;16852;51.446;6.528;2024-03-02T09:02:58;14.50;99.90
27858;DHT22;16852;51.446;6.528;2024-03-02T09:05:00;14.70;99.90
27858;DHT22;16852;51.446;6.528;2024-03-02T09:07:01;14.70;99.90
27858;DHT22;16852;51.446;6.528;2024-03-02T09:09:02;14.60;99.90
27858;DHT22;16852;51.446;6.528;2024-03-02T09:11:04;14.50;99.90
27858;DHT22;16852;51.446;6.528;2024-03-02T09:13:05;14.50;99.90
27858;DHT22;16852;51.446;6.528;2024-03-02T09:15:06;14.60;99.90
27858;DHT22;16852;51.446;6.528;2024-03-02T09:17:07;14.50;99.90
27858;DHT22;16852;51.446;6.528;2024-03-02T09:19:10;14.50;99.90
27858;DHT22;16852;51.446;6.528;2024-03-02T09:21:10;14.50;99.90
27858;DHT22;16852;51.446;6.528;2024-03-02T09:23:11;14.50;99.90
27858;DHT22;16852;51.446;6.528;2024-03-02T09:25:12;14.40;99.90
27858;DHT22;16852;51.446;6.528;2024-03-02T09:27:12;14.50;99.90
27858;DHT22;16852;51.446;6.528;2024-03-02T09:29:13;14.40;99.90
27858;DHT22;16852;51.446;6.528;2024-03-02T09:31:14;14.40;99.90
27858;DHT22;16852;51.446;6.528;2024-03-02T09:33:15;14.30;99.90
27858;DHT22;16852;51.446;6.528;2024-03-02T09:35:15;14.30;99.90
27858;DHT22;16852;51.446;6.528;2024-03-02T09:37:16;14.20;99.90
27858;DHT22;16852;51.446;6.528;2024-03-02T09:39:17;14.30;99.90
27858;DHT22;16852;51.446;6.528;2024-03-02T09:41:18;14.30;99.90
27858;DHT22;16852;51.446;6.528;2024-03-02T09:43:19;14.10;99.90
27858;DHT22;16852;51.446;6.528;2024-03-02T09:45:24;14.00;99.90
27858;DHT22;16852;51.446;6.528;2024-03-02T09:47:25;14.00;99.90
27858;DHT22;16852;51.446;6.528;2024-03-02T09:49:26;14.00;99.90
27858;DHT22;16852;51.446;6.528;2024-03-02T09:51:27;14.00;99.90
27858;DHT22;16852;51.446;6.528;2024-03-02T09:53:31;13.60;99.90
27858;DHT22;16852;51.446;6.528;2024-03-02T09:55:32;13.70;99.90
27858;DHT22;16852;51.446;6.528;2024-03-02T09:57:33;13.80;99.90
27858;DHT22;16852;51.446;6.528;2024-03-02T09:59:33;13.70;99.90
27858;DHT22;16852;51.446;6.528;2024-03-02T10:01:35;13.60;99.90
27858;DHT22;16852;51.446;6.528;2024-03-02T10:03:37;13.70;99.90
27858;DHT22;16852;51.446;6.528;2024-03-02T10:05:37;13.60;99.90
27858;DHT22;16852;51.446;6.528;2024-03-02T10:07:38;13.70;99.90
27858;DHT22;16852;51.446;6.528;2024-03-02T10:09:42;13.80;99.90
27858;DHT22;16852;51.446;6.528;2024-03-02T10:11:43;13.80;99.90
27858;DHT22;16852;51.446;6.528;2024-03-02T10:13:44;13.80;99.90
27858;DHT22;16852;51.446;6.528;2024-03-02T10:15:45;13.80;99.90
27858;DHT22;16852;51.446;6.528;2024-03-02T10:17:47;13.70;99.90
27858;DHT22;16852;51.446;6.528;2024-03-02T10:19:48;13.70;99.90
27858;DHT22;16852;51.446;6.528;2024-03-02T10:21:53;13.70;99.90
27858;DHT22;16852;51.446;6.528;2024-03-02T10:24:07;13.70;99.90
27858;DHT22;16852;51.446;6.528;2024-03-02T10:26:17;13.80;99.90
27858;DHT22;16852;51.446;6.528;2024-03-02T10:28:21;13.80;99.90
27858;DHT22;16852;51.446;6.528;2024-03-02T10:30:22;13.80;99.90
27858;DHT22;16852;51.446;6.528;2024-03-02T10:32:23;13.80;99.90
27858;DHT22;16852;51.446;6.528;2024-03-02T10:34:33;13.90;99.90
27858;DHT22;16852;51.446;6.528;2024-03-02T10:36:36;14.00;99.90
27858;DHT22;16852;51.446;6.528;2024-03-02T10:38:37;14.00;99.90
27858;DHT22;16852;51.446;6.528;2024-03-02T10:40:40;14.10;99.90
27858;DHT22;16852;51.446;6.528;2024-03-02T10:42:42;13.90;99.90
27858;DHT22;16852;51.446;6.528;2024-03-02T10:44:45;13.90;99.90
27858;DHT22;16852;51.446;6.528;2024-03-02T10:46:47;13.90;99.90
27858;DHT22;16852;51.446;6.528;2024-03-02T10:48:49;13.90;99.90
27858;DHT22;16852;51.446;6.528;2024-03-02T10:50:56;14.00;99.90
27858;DHT22;16852;51.446;6.528;2024-03-02T10:53:04;13.90;99.90
27858;DHT22;16852;51.446;6.528;2024-03-02T10:55:09;13.90;99.90
27858;DHT22;16852;51.446;6.528;2024-03-02T10:57:14;13.90;99.90
27858;DHT22;16852;51.446;6.528;2024-03-02T11:01:25;13.90;99.90
27858;DHT22;16852;51.446;6.528;2024-03-02T11:03:25;13.80;99.90
27858;DHT22;16852;51.446;6.528;2024-03-02T11:05:28;13.90;99.90
27858;DHT22;16852;51.446;6.528;2024-03-02T11:07:31;13.90;99.90
27858;DHT22;16852;51.446;6.528;2024-03-02T11:09:42;13.80;99.90
27858;DHT22;16852;51.446;6.528;2024-03-02T11:12:12;13.80;99.90
27858;DHT22;16852;51.446;6.528;2024-03-02T11:14:16;13.90;99.90
27858;DHT22;16852;51.446;6.528;2024-03-02T11:18:30;14.00;99.90
27858;DHT22;16852;51.446;6.528;2024-03-02T11:20:32;14.10;99.90
27858;DHT22;16852;51.446;6.528;2024-03-02T11:22:34;14.10;99.90
27858;DHT22;16852;51.446;6.528;2024-03-02T11:24:35;14.20;99.90
27858;DHT22;16852;51.446;6.528;2024-03-02T11:26:42;14.20;99.90
27858;DHT22;16852;51.446;6.528;2024-03-02T11:28:43;14.30;99.90
27858;DHT22;16852;51.446;6.528;2024-03-02T11:32:55;14.50;99.90
27858;DHT22;16852;51.446;6.528;2024-03-02T11:34:56;14.50;99.90
27858;DHT22;16852;51.446;6.528;2024-03-02T11:36:58;14.50;99.90
27858;DHT22;16852;51.446;6.528;2024-03-02T11:39:02;14.50;99.90
27858;DHT22;16852;51.446;6.528;2024-03-02T11:41:11;14.50;99.90
27858;DHT22;16852;51.446;6.528;2024-03-02T11:43:31;14.50;99.90
27858;DHT22;16852;51.446;6.528;2024-03-02T11:45:36;14.50;99.90
27858;DHT22;16852;51.446;6.528;2024-03-02T11:47:54;14.60;99.90
27858;DHT22;16852;51.446;6.528;2024-03-02T11:49:56;14.40;99.90
27858;DHT22;16852;51.446;6.528;2024-03-02T11:52:01;14.40;99.90
27858;DHT22;16852;51.446;6.528;2024-03-02T11:54:08;14.50;99.90
27858;DHT22;16852;51.446;6.528;2024-03-02T11:56:24;14.40;99.90
27858;DHT22;16852;51.446;6.528;2024-03-02T11:58:40;14.50;99.90
27858;DHT22;16852;51.446;6.528;2024-03-02T12:01:01;14.50;99.90
27858;DHT22;16852;51.446;6.528;2024-03-02T12:03:08;14.50;99.90
27858;DHT22;16852;51.446;6.528;2024-03-02T12:05:16;14.50;99.90
27858;DHT22;16852;51.446;6.528;2024-03-02T12:07:22;14.50;99.90
27858;DHT22;16852;51.446;6.528;2024-03-02T12:09:32;14.50;99.90
27858;DHT22;16852;51.446;6.528;2024-03-02T12:11:33;14.50;99.90
27858;DHT22;16852;51.446;6.528;2024-03-02T12:13:34;14.40;99.90
27858;DHT22;16852;51.446;6.528;2024-03-02T12:15:39;14.30;99.90
27858;DHT22;16852;51.446;6.528;2024-03-02T12:17:43;14.30;99.90
27858;DHT22;16852;51.446;6.528;2024-03-02T12:19:58;14.20;99.90
27858;DHT22;16852;51.446;6.528;2024-03-02T12:22:10;14.20;99.90
27858;DHT22;16852;51.446;6.528;2024-03-02T12:24:20;14.20;99.90
27858;DHT22;16852;51.446;6.528;2024-03-02T12:26:51;14.10;99.90
27858;DHT22;16852;51.446;6.528;2024-03-02T12:28:58;14.10;99.90
27858;DHT22;16852;51.446;6.528;2024-03-02T12:31:03;14.10;99.90
27858;DHT22;16852;51.446;6.528;2024-03-02T12:33:14;14.00;99.90
27858;DHT22;16852;51.446;6.528;2024-03-02T12:35:27;14.10;99.90
27858;DHT22;16852;51.446;6.528;2024-03-02T12:38:12;14.00;99.90
27858;DHT22;16852;51.446;6.528;2024-03-02T12:39:57;14.00;99.90
27858;DHT22;16852;51.446;6.528;2024-03-02T12:42:02;14.10;99.90
27858;DHT22;16852;51.446;6.528;2024-03-02T12:44:09;14.10;99.90
27858;DHT22;16852;51.446;6.528;2024-03-02T12:46:11;14.10;99.90
27858;DHT22;16852;51.446;6.528;2024-03-02T12:48:18;14.10;99.90
27858;DHT22;16852;51.446;6.528;2024-03-02T12:50:35;14.20;99.90
27858;DHT22;16852;51.446;6.528;2024-03-02T12:52:52;14.10;99.90
27858;DHT22;16852;51.446;6.528;2024-03-02T12:55:10;14.10;99.90
27858;DHT22;16852;51.446;6.528;2024-03-02T12:57:17;14.10;99.90
27858;DHT22;16852;51.446;6.528;2024-03-02T12:59:27;14.10;99.90
27858;DHT22;16852;51.446;6.528;2024-03-02T13:01:33;14.20;99.90
27858;DHT22;16852;51.446;6.528;2024-03-02T13:03:48;14.20;99.90
27858;DHT22;16852;51.446;6.528;2024-03-02T13:05:56;14.20;99.90
27858;DHT22;16852;51.446;6.528;2024-03-02T13:08:05;14.20;99.90
27858;DHT22;16852;51.446;6.528;2024-03-02T13:10:20;14.20;99.90
27858;DHT22;16852;51.446;6.528;2024-03-02T13:12:31;14.20;99.90